createdAt,value
2023-03-05T00:01:12.196Z,100577.66
2023-03-05T00:03:39.534Z,100577.41
2023-03-05T00:06:06.899Z,100572.53
2023-03-05T00:08:33.815Z,100563.22
2023-03-05T00:11:03.109Z,100552.97
2023-03-05T00:13:30.313Z,100557.50
2023-03-05T00:15:57.138Z,100552.38
2023-03-05T00:18:24.149Z,100545.34
2023-03-05T00:20:51.011Z,100541.16
2023-03-05T00:23:17.765Z,100537.75
2023-03-05T00:25:46.150Z,100543.09
2023-03-05T00:28:13.555Z,100535.97
2023-03-05T00:30:40.638Z,100536.44
2023-03-05T00:33:08.145Z,100524.47
2023-03-05T00:35:42.516Z,100520.34
2023-03-05T00:38:09.890Z,100517.31
2023-03-05T00:40:38.280Z,100509.81
2023-03-05T00:43:05.830Z,100508.97
2023-03-05T00:45:33.170Z,100511.66
2023-03-05T00:48:00.721Z,100496.69
2023-03-05T00:50:28.002Z,100500.91
2023-03-05T00:52:55.000Z,100508.31
2023-03-05T00:55:22.301Z,100497.81
2023-03-05T00:57:49.221Z,100491.94
2023-03-05T01:00:16.618Z,100491.94
2023-03-05T01:02:43.478Z,100479.94
2023-03-05T01:05:14.129Z,100478.13
2023-03-05T01:07:41.316Z,100480.66
2023-03-05T01:10:12.107Z,100474.69
2023-03-05T01:12:40.168Z,100470.59
2023-03-05T01:15:07.572Z,100458.94
2023-03-05T01:17:34.838Z,100469.56
2023-03-05T01:20:01.758Z,100468.63
2023-03-05T01:22:30.940Z,100460.03
2023-03-05T01:24:57.805Z,100451.91
2023-03-05T01:27:24.663Z,100464.00
2023-03-05T01:29:51.592Z,100466.00
2023-03-05T01:32:18.368Z,100456.44
2023-03-05T01:34:45.137Z,100458.41
2023-03-05T01:37:12.036Z,100455.03
2023-03-05T01:39:39.657Z,100440.06
2023-03-05T01:42:06.845Z,100439.53
2023-03-05T01:44:35.120Z,100449.97
2023-03-05T01:47:06.461Z,100445.84
2023-03-05T01:49:38.010Z,100444.09
2023-03-05T01:52:19.959Z,100448.59
2023-03-05T01:54:50.548Z,100443.56
2023-03-05T01:57:21.067Z,100438.38
2023-03-05T01:59:51.587Z,100435.09
2023-03-05T02:02:19.743Z,100437.53
2023-03-05T02:04:51.748Z,100430.53
2023-03-05T02:07:18.613Z,100430.59
2023-03-05T02:09:45.331Z,100428.91
2023-03-05T02:12:13.325Z,100454.59
2023-03-05T02:14:41.953Z,100428.63
2023-03-05T02:17:10.394Z,100428.59
2023-03-05T02:19:58.953Z,100421.91
2023-03-05T02:22:25.748Z,100425.41
2023-03-05T02:24:52.755Z,100426.34
2023-03-05T02:27:23.390Z,100416.22
2023-03-05T02:29:50.182Z,100412.75
2023-03-05T02:32:17.351Z,100399.94
2023-03-05T02:34:44.786Z,100409.41
2023-03-05T02:37:11.714Z,100423.38
2023-03-05T02:39:39.829Z,100405.84
2023-03-05T02:42:07.151Z,100400.16
2023-03-05T02:44:34.423Z,100403.00
2023-03-05T02:47:01.354Z,100403.22
2023-03-05T02:49:32.530Z,100402.16
2023-03-05T02:51:59.440Z,100393.41
2023-03-05T02:54:26.423Z,100397.13
2023-03-05T02:56:53.250Z,100388.47
2023-03-05T02:59:22.140Z,100390.19
2023-03-05T03:01:49.102Z,100393.06
2023-03-05T03:04:15.879Z,100388.63
2023-03-05T03:06:42.724Z,100373.84
2023-03-05T03:09:09.719Z,100390.63
2023-03-05T03:11:36.515Z,100378.47
2023-03-05T03:14:03.298Z,100380.81
2023-03-05T03:16:30.214Z,100358.22
2023-03-05T03:18:57.234Z,100366.88
2023-03-05T03:21:25.693Z,100364.16
2023-03-05T03:23:53.240Z,100368.56
2023-03-05T03:26:20.114Z,100364.50
2023-03-05T03:28:47.213Z,100354.81
2023-03-05T03:31:14.099Z,100357.50
2023-03-05T03:33:40.965Z,100349.84
2023-03-05T03:36:08.312Z,100365.38
2023-03-05T03:38:35.080Z,100342.72
2023-03-05T03:41:02.187Z,100345.50
2023-03-05T03:43:28.898Z,100353.88
2023-03-05T03:45:55.685Z,100343.84
2023-03-05T03:48:22.429Z,100335.91
2023-03-05T03:50:49.405Z,100330.25
2023-03-05T03:53:17.591Z,100348.63
2023-03-05T03:55:48.490Z,100336.44
2023-03-05T03:58:15.172Z,100333.72
2023-03-05T04:00:42.216Z,100340.16
2023-03-05T04:03:09.422Z,100327.13
2023-03-05T04:05:36.156Z,100345.63
2023-03-05T04:08:03.574Z,100327.69
2023-03-05T04:10:30.722Z,100321.50
2023-03-05T04:12:57.390Z,100335.53
2023-03-05T04:15:25.054Z,100324.19
2023-03-05T04:17:51.765Z,100318.88
2023-03-05T04:20:18.596Z,100316.28
2023-03-05T04:22:45.362Z,100316.31
2023-03-05T04:25:12.058Z,100315.28
2023-03-05T04:27:40.433Z,100320.78
2023-03-05T04:30:08.971Z,100337.25
2023-03-05T04:32:35.791Z,100317.19
2023-03-05T04:35:02.625Z,100296.88
2023-03-05T04:37:29.388Z,100308.41
2023-03-05T04:39:56.102Z,100290.06
2023-03-05T04:42:25.887Z,100283.97
2023-03-05T04:44:52.701Z,100291.16
2023-03-05T04:47:19.623Z,100276.25
2023-03-05T04:49:46.431Z,100299.81
2023-03-05T04:52:14.620Z,100299.09
2023-03-05T04:54:41.776Z,100286.09
2023-03-05T04:57:08.885Z,100276.38
2023-03-05T04:59:37.769Z,100269.25
2023-03-05T05:02:05.062Z,100269.41
2023-03-05T05:04:32.037Z,100281.00
2023-03-05T05:06:59.484Z,100282.69
2023-03-05T05:09:26.515Z,100276.59
2023-03-05T05:11:53.360Z,100293.16
2023-03-05T05:14:20.388Z,100286.25
2023-03-05T05:16:47.076Z,100278.34
2023-03-05T05:19:13.844Z,100279.22
2023-03-05T05:21:40.710Z,100287.16
2023-03-05T05:24:07.747Z,100279.06
2023-03-05T05:26:34.552Z,100284.47
2023-03-05T05:29:01.220Z,100285.34
2023-03-05T05:31:27.995Z,100269.72
2023-03-05T05:33:54.720Z,100272.50
2023-03-05T05:36:22.547Z,100275.06
2023-03-05T05:38:49.396Z,100277.69
2023-03-05T05:41:18.701Z,100270.00
2023-03-05T05:43:45.987Z,100280.25
2023-03-05T05:46:15.339Z,100289.97
2023-03-05T05:48:42.369Z,100267.09
2023-03-05T05:51:15.138Z,100267.09
2023-03-05T05:53:42.437Z,100284.47
2023-03-05T05:56:10.670Z,100292.91
2023-03-05T05:58:38.366Z,100276.50
2023-03-05T06:01:22.024Z,100287.09
2023-03-05T06:03:48.992Z,100282.78
2023-03-05T06:06:18.140Z,100290.66
2023-03-05T06:08:45.806Z,100275.34
2023-03-05T06:11:12.708Z,100280.38
2023-03-05T06:13:39.842Z,100304.22
2023-03-05T06:16:09.585Z,100296.72
2023-03-05T06:18:36.491Z,100302.00
2023-03-05T06:21:08.671Z,100279.44
2023-03-05T06:23:35.704Z,100290.66
2023-03-05T06:26:04.856Z,100290.63
2023-03-05T06:28:32.132Z,100268.69
2023-03-05T06:31:04.616Z,100281.84
2023-03-05T06:33:31.851Z,100290.75
2023-03-05T06:35:58.789Z,100276.16
2023-03-05T06:38:25.643Z,100288.31
2023-03-05T06:40:52.465Z,100283.19
2023-03-05T06:43:19.273Z,100282.19
2023-03-05T06:45:46.132Z,100273.28
2023-03-05T06:48:13.000Z,100293.19
2023-03-05T06:50:39.884Z,100274.88
2023-03-05T06:53:06.729Z,100264.47
2023-03-05T06:55:39.804Z,100270.50
2023-03-05T06:58:07.104Z,100272.09
2023-03-05T07:00:34.179Z,100277.56
2023-03-05T07:03:00.925Z,100263.53
2023-03-05T07:05:27.685Z,100283.53
2023-03-05T07:07:54.681Z,100277.28
2023-03-05T07:10:21.357Z,100272.69
2023-03-05T07:12:48.024Z,100306.75
2023-03-05T07:15:14.706Z,100274.53
2023-03-05T07:17:41.432Z,100278.66
2023-03-05T07:20:09.091Z,100276.88
2023-03-05T07:22:37.898Z,100317.75
2023-03-05T07:25:05.710Z,100298.47
2023-03-05T07:27:36.170Z,100288.06
2023-03-05T07:30:02.914Z,100297.63
2023-03-05T07:32:29.835Z,100280.50
2023-03-05T07:34:56.631Z,100306.38
2023-03-05T07:37:23.396Z,100295.81
2023-03-05T07:39:50.214Z,100282.28
2023-03-05T07:42:16.963Z,100292.72
2023-03-05T07:44:52.561Z,100274.25
2023-03-05T07:47:19.368Z,100280.28
2023-03-05T07:49:46.347Z,100289.13
2023-03-05T07:52:13.187Z,100299.44
2023-03-05T07:54:39.921Z,100279.41
2023-03-05T07:57:08.042Z,100308.78
2023-03-05T07:59:35.101Z,100298.13
2023-03-05T08:02:02.087Z,100290.91
2023-03-05T08:04:31.983Z,100286.63
2023-03-05T08:06:59.997Z,100285.22
2023-03-05T08:09:28.131Z,100287.06
2023-03-05T08:11:54.946Z,100284.97
2023-03-05T08:14:21.760Z,100277.94
2023-03-05T08:16:52.323Z,100285.50
2023-03-05T08:19:20.016Z,100273.09
2023-03-05T08:21:47.203Z,100281.97
2023-03-05T08:24:14.321Z,100278.53
2023-03-05T08:26:41.592Z,100280.06
2023-03-05T08:29:09.647Z,100265.88
2023-03-05T08:31:37.285Z,100274.97
2023-03-05T08:34:05.125Z,100268.38
2023-03-05T08:36:31.904Z,100272.41
2023-03-05T08:38:59.746Z,100265.56
2023-03-05T08:41:26.566Z,100274.13
2023-03-05T08:43:53.649Z,100255.56
2023-03-05T08:46:20.356Z,100249.59
2023-03-05T08:48:47.152Z,100243.59
2023-03-05T08:51:16.216Z,100243.31
2023-03-05T08:53:44.358Z,100258.09
2023-03-05T08:56:11.695Z,100244.44
2023-03-05T08:58:38.471Z,100252.44
2023-03-05T09:01:05.786Z,100246.16
2023-03-05T09:03:32.612Z,100242.56
2023-03-05T09:06:04.589Z,100222.50
2023-03-05T09:08:31.401Z,100248.97
2023-03-05T09:10:58.163Z,100232.97
2023-03-05T09:13:24.977Z,100246.91
2023-03-05T09:15:56.464Z,100230.59
2023-03-05T09:18:23.447Z,100228.81
2023-03-05T09:20:50.210Z,100238.47
2023-03-05T09:23:16.970Z,100224.22
2023-03-05T09:25:43.677Z,100229.47
2023-03-05T09:28:10.483Z,100225.94
2023-03-05T09:30:37.250Z,100222.97
2023-03-05T09:33:07.501Z,100220.84
2023-03-05T09:35:35.778Z,100217.59
2023-03-05T09:38:03.575Z,100221.78
2023-03-05T09:40:44.326Z,100221.88
2023-03-05T09:43:24.683Z,100217.53
2023-03-05T09:46:11.175Z,100226.25
2023-03-05T09:49:00.716Z,100228.94
2023-03-05T09:51:30.751Z,100225.00
2023-03-05T09:54:06.977Z,100220.53
2023-03-05T09:56:40.639Z,100228.25
2023-03-05T09:59:45.227Z,100226.03
2023-03-05T10:02:24.924Z,100220.16
2023-03-05T10:04:55.886Z,100213.84
2023-03-05T10:07:32.799Z,100208.47
2023-03-05T10:10:02.396Z,100213.09
2023-03-05T10:12:42.854Z,100206.19
2023-03-05T10:15:13.672Z,100199.34
2023-03-05T10:17:55.248Z,100208.75
2023-03-05T10:20:26.615Z,100193.97
2023-03-05T10:23:04.225Z,100198.25
2023-03-05T10:25:53.086Z,100212.34
2023-03-05T10:28:59.487Z,100208.53
2023-03-05T10:31:41.578Z,100202.44
2023-03-05T10:34:21.333Z,100200.72
2023-03-05T10:37:09.134Z,100196.25
2023-03-05T10:40:10.519Z,100198.50
2023-03-05T10:42:59.592Z,100185.00
2023-03-05T10:45:29.814Z,100188.13
2023-03-05T10:48:32.532Z,100197.75
2023-03-05T10:51:19.273Z,100175.50
2023-03-05T10:53:56.286Z,100176.38
2023-03-05T10:56:25.734Z,100174.47
2023-03-05T10:58:53.032Z,100165.56
2023-03-05T11:01:24.466Z,100165.91
2023-03-05T11:03:54.258Z,100175.66
2023-03-05T11:06:42.040Z,100165.94
2023-03-05T11:09:22.322Z,100161.28
2023-03-05T11:12:10.756Z,100168.94
2023-03-05T11:14:44.045Z,100169.81
2023-03-05T11:17:29.096Z,100160.22
2023-03-05T11:19:57.420Z,100166.16
2023-03-05T11:22:35.878Z,100157.66
2023-03-05T11:25:13.713Z,100160.16
2023-03-05T11:27:51.986Z,100155.06
2023-03-05T11:30:25.072Z,100160.31
2023-03-05T11:33:10.269Z,100174.78
2023-03-05T11:35:42.145Z,100151.75
2023-03-05T11:38:24.734Z,100161.72
2023-03-05T11:40:52.901Z,100151.84
2023-03-05T11:43:22.548Z,100144.09
2023-03-05T11:45:52.558Z,100162.16
2023-03-05T11:48:23.634Z,100144.09
2023-03-05T11:50:55.030Z,100144.94
2023-03-05T11:53:29.287Z,100153.78
2023-03-05T11:55:58.335Z,100137.28
2023-03-05T11:58:31.336Z,100133.81
2023-03-05T12:00:59.176Z,100134.13
2023-03-05T12:03:37.317Z,100123.56
2023-03-05T12:06:17.472Z,100114.03
2023-03-05T12:08:50.485Z,100115.66
2023-03-05T12:11:21.222Z,100109.81
2023-03-05T12:14:08.247Z,100105.72
2023-03-05T12:16:40.718Z,100109.38
2023-03-05T12:19:35.748Z,100096.41
2023-03-05T12:22:03.160Z,100101.72
2023-03-05T12:24:29.829Z,100104.97
2023-03-05T12:27:02.664Z,100101.31
2023-03-05T12:29:48.006Z,100101.72
2023-03-05T12:32:33.452Z,100106.06
2023-03-05T12:35:23.536Z,100107.59
2023-03-05T12:37:53.270Z,100103.66
2023-03-05T12:40:38.264Z,100104.78
2023-03-05T12:43:29.127Z,100099.53
2023-03-05T12:46:25.636Z,100100.97
2023-03-05T12:48:52.751Z,100102.25
2023-03-05T12:51:37.988Z,100091.44
2023-03-05T12:54:21.757Z,100099.72
2023-03-05T12:56:49.138Z,100092.69
2023-03-05T12:59:17.528Z,100092.50
2023-03-05T13:01:51.354Z,100095.31
2023-03-05T13:04:24.010Z,100091.44
2023-03-05T13:07:02.566Z,100093.69
2023-03-05T13:09:33.746Z,100097.09
2023-03-05T13:12:01.650Z,100086.66
2023-03-05T13:14:37.008Z,100084.19
2023-03-05T13:17:29.496Z,100083.72
2023-03-05T13:19:57.853Z,100080.44
2023-03-05T13:22:25.075Z,100074.41
2023-03-05T13:25:05.647Z,100084.78
2023-03-05T13:27:33.140Z,100085.81
2023-03-05T13:29:59.879Z,100085.22
2023-03-05T13:32:32.274Z,100089.97
2023-03-05T13:35:00.943Z,100090.94
2023-03-05T13:37:31.413Z,100091.06
2023-03-05T13:40:00.686Z,100085.63
2023-03-05T13:42:28.753Z,100082.28
2023-03-05T13:44:57.258Z,100085.09
2023-03-05T13:47:28.533Z,100080.75
2023-03-05T13:49:57.600Z,100080.66
2023-03-05T13:52:26.035Z,100077.50
2023-03-05T13:54:52.836Z,100082.59
2023-03-05T13:57:40.998Z,100071.44
2023-03-05T14:00:30.648Z,100066.84
2023-03-05T14:03:00.628Z,100073.06
2023-03-05T14:05:28.246Z,100071.16
2023-03-05T14:07:56.885Z,100066.56
2023-03-05T14:10:35.934Z,100072.69
2023-03-05T14:13:23.729Z,100058.63
2023-03-05T14:16:08.419Z,100055.88
2023-03-05T14:18:36.174Z,100066.44
2023-03-05T14:21:10.501Z,100059.13
2023-03-05T14:23:48.043Z,100062.56
2023-03-05T14:26:28.585Z,100061.16
2023-03-05T14:29:17.615Z,100056.97
2023-03-05T14:31:55.432Z,100051.50
2023-03-05T14:34:31.889Z,100048.50
2023-03-05T14:37:03.589Z,100048.25
2023-03-05T14:39:40.110Z,100049.91
2023-03-05T14:42:34.985Z,100043.16
2023-03-05T14:45:16.462Z,100050.22
2023-03-05T14:47:43.311Z,100045.56
2023-03-05T14:50:25.970Z,100034.81
2023-03-05T14:52:56.842Z,100025.88
2023-03-05T14:55:25.958Z,100030.41
2023-03-05T14:57:55.579Z,100026.66
2023-03-05T15:00:24.899Z,100028.25
2023-03-05T15:02:51.791Z,100023.84
2023-03-05T15:05:18.851Z,100023.13
2023-03-05T15:07:46.527Z,100021.31
2023-03-05T15:10:18.771Z,100017.69
2023-03-05T15:12:45.685Z,100011.94
2023-03-05T15:15:16.578Z,100017.63
2023-03-05T15:17:47.399Z,100012.75
2023-03-05T15:20:18.886Z,100019.91
2023-03-05T15:22:45.558Z,100010.53
2023-03-05T15:25:12.998Z,100010.78
2023-03-05T15:27:39.920Z,100012.34
2023-03-05T15:30:08.742Z,100015.78
2023-03-05T15:32:35.622Z,100007.25
2023-03-05T15:35:02.646Z,100008.22
2023-03-05T15:37:29.622Z,100011.00
2023-03-05T15:39:56.437Z,100005.25
2023-03-05T15:42:23.164Z,100004.16
2023-03-05T15:44:49.975Z,100000.50
2023-03-05T15:47:16.760Z,100002.25
2023-03-05T15:49:43.611Z,99986.63
2023-03-05T15:52:14.368Z,99984.16
2023-03-05T15:54:41.211Z,99990.44
2023-03-05T15:57:09.918Z,99982.38
2023-03-05T15:59:37.578Z,99973.53
2023-03-05T16:02:05.165Z,99971.47
2023-03-05T16:04:35.187Z,99974.09
2023-03-05T16:07:08.108Z,99979.88
2023-03-05T16:09:38.029Z,99968.66
2023-03-05T16:12:09.418Z,99981.03
2023-03-05T16:14:38.397Z,99976.91
2023-03-05T16:17:05.808Z,99983.97
2023-03-05T16:19:35.713Z,99977.06
2023-03-05T16:22:02.541Z,99978.22
2023-03-05T16:24:29.403Z,99981.69
2023-03-05T16:26:56.147Z,99979.06
2023-03-05T16:29:22.943Z,99966.56
2023-03-05T16:31:49.917Z,99977.13
2023-03-05T16:34:16.918Z,99969.34
2023-03-05T16:36:52.096Z,99965.59
2023-03-05T16:39:23.110Z,99961.19
2023-03-05T16:41:50.392Z,99968.13
2023-03-05T16:44:17.295Z,99970.09
2023-03-05T16:46:49.290Z,99969.44
2023-03-05T16:49:16.866Z,99972.19
2023-03-05T16:51:43.630Z,99976.84
2023-03-05T16:54:10.421Z,99973.47
2023-03-05T16:56:37.696Z,99972.56
2023-03-05T16:59:04.813Z,99983.13
2023-03-05T17:01:31.964Z,99974.31
2023-03-05T17:03:59.427Z,99975.19
2023-03-05T17:06:28.935Z,99979.63
2023-03-05T17:08:56.302Z,99975.56
2023-03-05T17:11:23.197Z,99969.72
2023-03-05T17:13:49.980Z,99980.13
2023-03-05T17:16:18.369Z,99979.41
2023-03-05T17:18:45.358Z,99978.66
2023-03-05T17:21:12.552Z,99981.41
2023-03-05T17:23:42.658Z,99976.09
2023-03-05T17:26:12.981Z,99968.06
2023-03-05T17:28:40.176Z,99972.44
2023-03-05T17:31:07.134Z,99971.84
2023-03-05T17:33:34.727Z,99963.00
2023-03-05T17:36:02.143Z,99970.19
2023-03-05T17:38:29.157Z,99962.59
2023-03-05T17:40:56.091Z,99965.91
2023-03-05T17:43:23.059Z,99964.03
2023-03-05T17:45:50.019Z,99971.41
2023-03-05T17:48:16.940Z,99966.41
2023-03-05T17:50:45.194Z,99969.88
2023-03-05T17:53:12.428Z,99972.09
2023-03-05T17:55:40.169Z,99968.81
2023-03-05T17:58:07.323Z,99965.38
2023-03-05T18:00:37.928Z,99978.41
2023-03-05T18:03:05.189Z,99964.97
2023-03-05T18:05:32.282Z,99968.34
2023-03-05T18:08:00.843Z,99960.69
2023-03-05T18:10:28.059Z,99966.22
2023-03-05T18:12:55.276Z,99956.56
2023-03-05T18:20:58.437Z,99955.75
2023-03-05T18:23:25.197Z,99957.75
2023-03-05T18:25:52.109Z,99963.81
2023-03-05T18:28:21.588Z,99955.19
2023-03-05T18:30:49.012Z,99956.72
2023-03-05T18:33:19.681Z,99959.25
2023-03-05T18:35:46.800Z,99956.56
2023-03-05T18:38:13.631Z,99949.97
2023-03-05T18:40:40.577Z,99957.41
2023-03-05T18:43:07.321Z,99961.75
2023-03-05T18:45:34.402Z,99952.47
2023-03-05T18:48:01.180Z,99952.16
2023-03-05T18:50:29.223Z,99956.50
2023-03-05T18:52:56.066Z,99947.63
2023-03-05T18:55:25.375Z,99949.50
2023-03-05T18:57:52.374Z,99952.09
2023-03-05T19:00:23.145Z,99945.84
2023-03-05T19:02:50.147Z,99947.78
2023-03-05T19:05:17.877Z,99948.13
2023-03-05T19:07:46.335Z,99942.81
2023-03-05T19:10:14.140Z,99941.28
2023-03-05T19:12:55.444Z,99949.91
2023-03-05T19:15:22.748Z,99951.78
2023-03-05T19:17:49.933Z,99942.94
2023-03-05T19:20:18.407Z,99941.34
2023-03-05T19:22:45.206Z,99938.75
2023-03-05T19:25:12.516Z,99934.13
2023-03-05T19:27:39.342Z,99930.38
2023-03-05T19:30:06.817Z,99927.44
2023-03-05T19:32:33.651Z,99929.78
2023-03-05T19:35:00.438Z,99928.53
2023-03-05T19:37:27.343Z,99922.25
2023-03-05T19:39:54.326Z,99921.09
2023-03-05T19:42:21.066Z,99922.81
2023-03-05T19:44:50.103Z,99920.34
2023-03-05T19:47:17.273Z,99920.28
2023-03-05T19:49:43.986Z,99920.53
2023-03-05T19:52:10.748Z,99916.97
2023-03-05T19:54:40.194Z,99915.91
2023-03-05T19:57:07.010Z,99911.72
2023-03-05T19:59:33.737Z,99911.03
2023-03-05T20:02:00.662Z,99916.47
2023-03-05T20:04:28.136Z,99912.44
2023-03-05T20:06:55.062Z,99921.16
2023-03-05T20:09:22.195Z,99915.97
2023-03-05T20:11:49.271Z,99909.59
2023-03-05T20:14:16.236Z,99913.56
2023-03-05T20:16:46.080Z,99912.28
2023-03-05T20:19:18.465Z,99903.03
2023-03-05T20:21:45.896Z,99902.47
2023-03-05T20:24:15.462Z,99905.31
2023-03-05T20:26:43.811Z,99895.66
2023-03-05T20:29:16.072Z,99903.31
2023-03-05T20:31:46.455Z,99895.53
2023-03-05T20:34:15.592Z,99906.38
2023-03-05T20:36:42.470Z,99896.75
2023-03-05T20:39:12.158Z,99894.50
2023-03-05T20:41:39.780Z,99893.22
2023-03-05T20:44:09.962Z,99898.09
2023-03-05T20:46:41.878Z,99891.00
2023-03-05T20:49:09.494Z,99890.09
2023-03-05T20:51:38.097Z,99883.00
2023-03-05T20:54:11.127Z,99883.84
2023-03-05T20:56:37.955Z,99884.94
2023-03-05T20:59:09.702Z,99870.06
2023-03-05T21:01:38.994Z,99877.91
2023-03-05T21:04:07.452Z,99868.38
2023-03-05T21:06:34.669Z,99867.44
2023-03-05T21:09:01.990Z,99863.13
2023-03-05T21:11:29.001Z,99852.75
2023-03-05T21:13:55.664Z,99863.97
2023-03-05T21:16:25.019Z,99850.81
2023-03-05T21:18:52.636Z,99848.47
2023-03-05T21:21:19.770Z,99853.63
2023-03-05T21:23:47.284Z,99852.75
2023-03-05T21:26:14.720Z,99853.50
2023-03-05T21:28:41.777Z,99848.56
2023-03-05T21:31:11.304Z,99846.59
2023-03-05T21:33:38.509Z,99841.25
2023-03-05T21:36:05.551Z,99838.69
2023-03-05T21:38:34.207Z,99834.13
2023-03-05T21:41:01.891Z,99833.34
2023-03-05T21:43:31.372Z,99828.94
2023-03-05T21:46:00.448Z,99814.94
2023-03-05T21:48:27.598Z,99819.19
2023-03-05T21:50:55.507Z,99821.00
2023-03-05T21:53:22.775Z,99807.84
2023-03-05T21:56:04.293Z,99810.47
2023-03-05T21:58:32.663Z,99806.03
2023-03-05T22:01:00.146Z,99801.69
2023-03-05T22:03:27.656Z,99793.69
2023-03-05T22:05:55.062Z,99799.91
2023-03-05T22:08:22.535Z,99789.44
2023-03-05T22:10:49.407Z,99790.31
2023-03-05T22:13:17.996Z,99793.91
2023-03-05T22:15:49.893Z,99791.22
2023-03-05T22:18:19.519Z,99775.63
2023-03-05T22:20:46.516Z,99775.69
2023-03-05T22:23:14.052Z,99778.34
2023-03-05T22:25:41.376Z,99776.47
2023-03-05T22:28:11.675Z,99770.47
2023-03-05T22:30:45.324Z,99769.53
2023-03-05T22:33:12.445Z,99762.63
2023-03-05T22:35:40.547Z,99756.56
2023-03-05T22:38:11.074Z,99752.22
2023-03-05T22:40:41.871Z,99752.97
2023-03-05T22:43:08.507Z,99745.50
2023-03-05T22:45:35.472Z,99742.06
2023-03-05T22:48:05.769Z,99742.66
2023-03-05T22:50:32.575Z,99741.75
2023-03-05T22:52:59.633Z,99740.84
2023-03-05T22:55:26.417Z,99742.63
2023-03-05T22:57:53.553Z,99739.19
2023-03-05T23:00:23.752Z,99729.56
2023-03-05T23:02:51.588Z,99733.19
2023-03-05T23:05:18.802Z,99733.22
2023-03-05T23:07:45.978Z,99731.41
2023-03-05T23:10:22.537Z,99721.13
2023-03-05T23:12:52.181Z,99729.91
2023-03-05T23:15:25.100Z,99723.09
2023-03-05T23:17:51.938Z,99722.31
2023-03-05T23:20:21.151Z,99719.69
2023-03-05T23:22:48.685Z,99717.19
2023-03-05T23:25:16.598Z,99712.06
2023-03-05T23:27:43.571Z,99711.84
2023-03-05T23:30:16.732Z,99711.00
2023-03-05T23:32:45.369Z,99701.75
2023-03-05T23:35:13.752Z,99707.88
2023-03-05T23:37:40.525Z,99706.22
2023-03-05T23:40:09.448Z,99707.88
2023-03-05T23:42:38.316Z,99693.97
2023-03-05T23:45:07.552Z,99699.16
2023-03-05T23:47:36.089Z,99685.06
2023-03-05T23:50:08.979Z,99680.50
2023-03-05T23:52:35.824Z,99679.78
2023-03-05T23:55:02.505Z,99680.38
2023-03-05T23:57:29.317Z,99684.97
2023-03-05T23:59:55.995Z,99678.03
